createdAt,value
2017-11-17T00:00:04.141Z,101484.95
2017-11-17T00:01:06.648Z,101489.70
2017-11-17T00:02:09.133Z,101486.81
2017-11-17T00:03:11.638Z,101484.06
2017-11-17T00:04:14.130Z,101482.95
2017-11-17T00:05:16.604Z,101484.08
2017-11-17T00:06:19.087Z,101484.42
2017-11-17T00:07:21.551Z,101481.59
2017-11-17T00:08:24.020Z,101478.22
2017-11-17T00:09:26.580Z,101484.64
2017-11-17T00:10:29.043Z,101480.61
2017-11-17T00:11:31.565Z,101480.05
2017-11-17T00:12:34.032Z,101485.14
2017-11-17T00:13:36.496Z,101481.58
2017-11-17T00:14:38.985Z,101484.33
2017-11-17T00:15:41.470Z,101480.51
2017-11-17T00:16:43.974Z,101480.10
2017-11-17T00:17:46.463Z,101482.35
2017-11-17T00:18:48.928Z,101485.52
2017-11-17T00:19:51.395Z,101473.98
2017-11-17T00:20:53.856Z,101483.94
2017-11-17T00:21:56.344Z,101480.68
2017-11-17T00:22:58.812Z,101480.04
2017-11-17T00:24:01.310Z,101481.31
2017-11-17T00:25:03.793Z,101478.21
2017-11-17T00:26:06.273Z,101477.14
2017-11-17T00:27:08.776Z,101485.30
2017-11-17T00:28:11.240Z,101487.39
2017-11-17T00:29:13.722Z,101484.55
2017-11-17T00:30:16.691Z,101489.80
2017-11-17T00:31:19.173Z,101486.78
2017-11-17T00:32:21.692Z,101489.26
2017-11-17T00:33:24.173Z,101487.12
2017-11-17T00:34:26.650Z,101491.30
2017-11-17T00:35:29.112Z,101491.35
2017-11-17T00:36:31.594Z,101493.91
2017-11-17T00:37:34.118Z,101490.23
2017-11-17T00:38:36.584Z,101487.50
2017-11-17T00:39:39.059Z,101485.92
2017-11-17T00:40:41.524Z,101485.67
2017-11-17T00:41:43.992Z,101480.77
2017-11-17T00:42:46.477Z,101485.31
2017-11-17T00:43:48.955Z,101478.94
2017-11-17T00:44:51.434Z,101481.03
2017-11-17T00:45:53.930Z,101478.70
2017-11-17T00:46:56.410Z,101486.41
2017-11-17T00:47:58.910Z,101480.36
2017-11-17T00:49:01.406Z,101485.81
2017-11-17T00:50:03.876Z,101484.33
2017-11-17T00:51:06.335Z,101478.08
2017-11-17T00:52:08.813Z,101476.64
2017-11-17T00:53:11.304Z,101483.22
2017-11-17T00:54:13.787Z,101479.70
2017-11-17T00:55:16.248Z,101479.70
2017-11-17T00:56:18.712Z,101478.47
2017-11-17T00:57:21.171Z,101472.96
2017-11-17T00:58:23.660Z,101473.94
2017-11-17T00:59:26.124Z,101474.75
2017-11-17T01:00:28.619Z,101477.25
2017-11-17T01:01:31.092Z,101481.44
2017-11-17T01:02:33.582Z,101478.17
2017-11-17T01:03:36.071Z,101487.06
2017-11-17T01:04:38.557Z,101482.80
2017-11-17T01:05:41.033Z,101478.97
2017-11-17T01:06:43.491Z,101478.47
2017-11-17T01:07:45.966Z,101475.20
2017-11-17T01:08:48.463Z,101479.95
2017-11-17T01:09:50.935Z,101476.69
2017-11-17T01:10:53.422Z,101476.03
2017-11-17T01:11:55.924Z,101477.56
2017-11-17T01:12:58.360Z,101482.61
2017-11-17T01:14:00.862Z,101478.17
2017-11-17T01:15:03.320Z,101477.95
2017-11-17T01:16:05.789Z,101480.45
2017-11-17T01:17:08.267Z,101480.41
2017-11-17T01:18:10.736Z,101484.41
2017-11-17T01:19:13.241Z,101479.19
2017-11-17T01:20:15.709Z,101485.30
2017-11-17T01:21:18.172Z,101480.80
2017-11-17T01:22:20.632Z,101487.50
2017-11-17T01:23:23.109Z,101488.14
2017-11-17T01:24:25.672Z,101488.95
2017-11-17T01:25:28.131Z,101486.20
2017-11-17T01:26:30.606Z,101498.19
2017-11-17T01:27:33.074Z,101496.56
2017-11-17T01:28:35.544Z,101496.05
2017-11-17T01:29:38.031Z,101495.24
2017-11-17T01:30:40.501Z,101493.89
2017-11-17T01:31:42.960Z,101499.83
2017-11-17T01:32:45.433Z,101493.98
2017-11-17T01:33:47.914Z,101499.14
2017-11-17T01:34:50.396Z,101500.82
2017-11-17T01:35:52.855Z,101504.20
2017-11-17T01:36:55.329Z,101493.23
2017-11-17T01:37:57.792Z,101503.28
2017-11-17T01:39:00.271Z,101504.43
2017-11-17T01:40:02.813Z,101504.64
2017-11-17T01:41:05.294Z,101501.63
2017-11-17T01:42:07.764Z,101502.25
2017-11-17T01:43:10.235Z,101498.73
2017-11-17T01:44:12.695Z,101496.81
2017-11-17T01:45:15.193Z,101502.63
2017-11-17T01:46:17.673Z,101501.00
2017-11-17T01:47:20.142Z,101501.82
2017-11-17T01:48:22.614Z,101499.16
2017-11-17T01:49:25.084Z,101496.17
2017-11-17T01:50:27.568Z,101493.00
2017-11-17T01:51:30.041Z,101500.72
2017-11-17T01:52:32.510Z,101498.36
2017-11-17T01:53:34.988Z,101496.49
2017-11-17T01:54:37.471Z,101494.63
2017-11-17T01:55:39.966Z,101491.50
2017-11-17T01:56:42.431Z,101497.92
2017-11-17T01:57:44.910Z,101495.01
2017-11-17T01:58:47.371Z,101492.50
2017-11-17T01:59:49.828Z,101494.73
2017-11-17T02:00:52.321Z,101496.23
2017-11-17T02:01:54.786Z,101500.92
2017-11-17T02:02:57.245Z,101497.35
2017-11-17T02:03:59.723Z,101496.84
2017-11-17T02:05:02.190Z,101494.16
2017-11-17T02:06:04.668Z,101496.50
2017-11-17T02:07:07.145Z,101493.65
2017-11-17T02:08:09.605Z,101495.09
2017-11-17T02:09:12.068Z,101497.87
2017-11-17T02:10:14.554Z,101501.87
2017-11-17T02:11:17.042Z,101503.31
2017-11-17T02:12:19.522Z,101508.06
2017-11-17T02:13:22.007Z,101506.73
2017-11-17T02:14:24.486Z,101498.53
2017-11-17T02:15:26.972Z,101502.56
2017-11-17T02:16:29.436Z,101499.83
2017-11-17T02:17:31.909Z,101507.75
2017-11-17T02:18:34.393Z,101502.85
2017-11-17T02:19:36.871Z,101502.34
2017-11-17T02:20:39.350Z,101511.08
2017-11-17T02:21:41.814Z,101496.80
2017-11-17T02:22:44.311Z,101504.34
2017-11-17T02:23:46.786Z,101505.00
2017-11-17T02:24:49.255Z,101505.40
2017-11-17T02:25:51.716Z,101506.80
2017-11-17T02:26:54.193Z,101502.39
2017-11-17T02:27:56.672Z,101500.91
2017-11-17T02:28:59.149Z,101502.89
2017-11-17T02:30:01.609Z,101503.33
2017-11-17T02:31:04.088Z,101506.16
2017-11-17T02:32:06.585Z,101505.03
2017-11-17T02:33:09.050Z,101506.35
2017-11-17T02:34:11.507Z,101502.62
2017-11-17T02:35:13.974Z,101496.39
2017-11-17T02:36:16.433Z,101499.30
2017-11-17T02:37:18.899Z,101497.83
2017-11-17T02:38:21.391Z,101498.70
2017-11-17T02:39:23.870Z,101496.11
2017-11-17T02:40:26.345Z,101493.38
2017-11-17T02:41:28.822Z,101493.69
2017-11-17T02:42:31.290Z,101493.75
2017-11-17T02:43:33.767Z,101485.23
2017-11-17T02:44:36.245Z,101487.48
2017-11-17T02:45:38.732Z,101491.64
2017-11-17T02:46:41.201Z,101495.39
2017-11-17T02:47:43.689Z,101500.80
2017-11-17T02:48:46.152Z,101496.32
2017-11-17T02:49:48.620Z,101498.88
2017-11-17T02:50:51.084Z,101500.72
2017-11-17T02:51:53.548Z,101499.00
2017-11-17T02:52:56.022Z,101504.13
2017-11-17T02:53:58.489Z,101495.50
2017-11-17T02:55:00.962Z,101495.56
2017-11-17T02:56:03.421Z,101492.86
2017-11-17T02:57:05.888Z,101492.77
2017-11-17T02:58:08.364Z,101497.45
2017-11-17T02:59:10.827Z,101501.84
2017-11-17T03:00:13.310Z,101504.03
2017-11-17T03:01:15.786Z,101497.03
2017-11-17T03:02:18.258Z,101504.20
2017-11-17T03:03:20.727Z,101504.03
2017-11-17T03:04:23.215Z,101503.92
2017-11-17T03:05:25.675Z,101503.39
2017-11-17T03:06:28.152Z,101507.00
2017-11-17T03:07:30.611Z,101509.02
2017-11-17T03:08:33.073Z,101507.98
2017-11-17T03:09:35.555Z,101505.58
2017-11-17T03:10:38.039Z,101514.91
2017-11-17T03:11:40.564Z,101507.36
2017-11-17T03:12:43.087Z,101510.93
2017-11-17T03:13:45.570Z,101508.48
2017-11-17T03:14:48.027Z,101515.53
2017-11-17T03:15:50.484Z,101512.67
2017-11-17T03:16:52.955Z,101508.86
2017-11-17T03:17:55.430Z,101507.13
2017-11-17T03:18:57.895Z,101516.65
2017-11-17T03:20:00.366Z,101510.78
2017-11-17T03:21:02.839Z,101515.73
2017-11-17T03:22:05.318Z,101519.05
2017-11-17T03:23:07.799Z,101517.17
2017-11-17T03:24:10.266Z,101518.61
2017-11-17T03:25:12.750Z,101524.30
2017-11-17T03:26:15.207Z,101527.92
2017-11-17T03:27:17.668Z,101526.83
2017-11-17T03:28:20.198Z,101530.45
2017-11-17T03:29:22.679Z,101533.27
2017-11-17T03:30:25.193Z,101533.98
2017-11-17T03:31:27.665Z,101535.82
2017-11-17T03:32:30.126Z,101530.93
2017-11-17T03:33:32.588Z,101529.05
2017-11-17T03:34:35.061Z,101530.29
2017-11-17T03:35:37.541Z,101535.80
2017-11-17T03:36:40.018Z,101536.62
2017-11-17T03:37:42.505Z,101541.03
2017-11-17T03:38:44.979Z,101543.42
2017-11-17T03:39:47.461Z,101542.85
2017-11-17T03:40:49.933Z,101543.97
2017-11-17T03:41:52.422Z,101546.61
2017-11-17T03:42:54.881Z,101548.31
2017-11-17T03:43:57.346Z,101545.85
2017-11-17T03:44:59.804Z,101547.73
2017-11-17T03:46:02.278Z,101551.66
2017-11-17T03:47:04.738Z,101551.91
2017-11-17T03:48:07.221Z,101549.41
2017-11-17T03:49:09.692Z,101551.03
2017-11-17T03:50:12.162Z,101547.74
2017-11-17T03:51:14.643Z,101553.13
2017-11-17T03:52:17.118Z,101550.12
2017-11-17T03:53:19.579Z,101554.00
2017-11-17T03:54:22.069Z,101561.36
2017-11-17T03:55:24.542Z,101560.30
2017-11-17T03:56:27.036Z,101552.39
2017-11-17T03:57:29.514Z,101558.78
2017-11-17T03:58:31.993Z,101557.17
2017-11-17T03:59:34.452Z,101560.70
2017-11-17T04:00:36.930Z,101567.90
2017-11-17T04:01:39.387Z,101564.38
2017-11-17T04:02:41.860Z,101565.53
2017-11-17T04:03:44.325Z,101565.55
2017-11-17T04:04:46.784Z,101560.77
2017-11-17T04:05:49.247Z,101560.25
2017-11-17T04:06:51.717Z,101563.88
2017-11-17T04:07:54.202Z,101561.33
2017-11-17T04:08:56.682Z,101565.52
2017-11-17T04:09:59.160Z,101568.98
2017-11-17T04:11:01.625Z,101572.98
2017-11-17T04:12:04.123Z,101576.20
2017-11-17T04:13:06.591Z,101574.47
2017-11-17T04:14:09.066Z,101578.19
2017-11-17T04:15:11.524Z,101583.55
2017-11-17T04:16:13.994Z,101583.91
2017-11-17T04:17:16.456Z,101582.47
2017-11-17T04:18:18.939Z,101584.91
2017-11-17T04:19:21.422Z,101583.37
2017-11-17T04:20:23.915Z,101579.69
2017-11-17T04:21:26.386Z,101580.25
2017-11-17T04:22:28.863Z,101580.98
2017-11-17T04:23:31.335Z,101583.12
2017-11-17T04:24:33.812Z,101584.59
2017-11-17T04:25:36.272Z,101587.20
2017-11-17T04:26:39.352Z,101588.92
2017-11-17T04:27:42.557Z,101591.27
2017-11-17T04:28:45.025Z,101583.10
2017-11-17T04:29:47.498Z,101584.23
2017-11-17T04:30:49.958Z,101588.11
2017-11-17T04:31:52.424Z,101585.09
2017-11-17T04:32:54.888Z,101589.95
2017-11-17T04:33:57.409Z,101588.98
2017-11-17T04:34:59.868Z,101588.88
2017-11-17T04:36:02.341Z,101591.70
2017-11-17T04:37:04.814Z,101593.09
2017-11-17T04:38:07.287Z,101594.12
2017-11-17T04:39:09.764Z,101582.34
2017-11-17T04:40:12.234Z,101591.07
2017-11-17T04:41:14.706Z,101590.31
2017-11-17T04:42:17.175Z,101586.32
2017-11-17T04:43:19.641Z,101583.31
2017-11-17T04:44:22.119Z,101582.95
2017-11-17T04:45:24.583Z,101586.89
2017-11-17T04:46:27.068Z,101573.16
2017-11-17T04:47:29.532Z,101577.61
2017-11-17T04:48:31.992Z,101572.15
2017-11-17T04:49:34.477Z,101576.56
2017-11-17T04:50:36.950Z,101581.56
2017-11-17T04:51:39.426Z,101578.86
2017-11-17T04:52:41.894Z,101580.28
2017-11-17T04:53:44.369Z,101577.43
2017-11-17T04:54:46.886Z,101582.22
2017-11-17T04:55:49.374Z,101579.42
2017-11-17T04:56:51.873Z,101578.22
2017-11-17T04:57:54.342Z,101585.81
2017-11-17T04:58:56.883Z,101582.50
2017-11-17T05:00:00.043Z,101585.30
2017-11-17T05:01:02.513Z,101580.25
2017-11-17T05:02:05.000Z,101585.78
2017-11-17T05:03:07.502Z,101588.32
2017-11-17T05:04:09.963Z,101591.33
2017-11-17T05:05:12.432Z,101585.51
2017-11-17T05:06:14.957Z,101591.52
2017-11-17T05:07:17.435Z,101587.23
2017-11-17T05:08:19.900Z,101583.20
2017-11-17T05:09:22.377Z,101583.92
2017-11-17T05:10:24.844Z,101582.44
2017-11-17T05:11:27.309Z,101584.64
2017-11-17T05:12:29.768Z,101581.38
2017-11-17T05:13:32.238Z,101583.88
2017-11-17T05:14:34.704Z,101583.12
2017-11-17T05:15:37.167Z,101587.16
2017-11-17T05:16:39.881Z,101585.23
2017-11-17T05:17:42.358Z,101587.89
2017-11-17T05:18:44.821Z,101587.70
2017-11-17T05:19:47.299Z,101589.54
2017-11-17T05:20:49.770Z,101590.56
2017-11-17T05:21:52.235Z,101593.90
2017-11-17T05:22:54.699Z,101592.95
2017-11-17T05:23:57.215Z,101589.13
2017-11-17T05:24:59.694Z,101586.84
2017-11-17T05:26:02.171Z,101592.40
2017-11-17T05:27:04.635Z,101597.96
2017-11-17T05:28:07.114Z,101591.53
2017-11-17T05:29:09.574Z,101602.14
2017-11-17T05:30:12.058Z,101592.97
2017-11-17T05:31:14.517Z,101601.91
2017-11-17T05:32:17.015Z,101598.23
2017-11-17T05:33:19.528Z,101596.20
2017-11-17T05:34:21.979Z,101598.65
2017-11-17T05:35:24.461Z,101600.28
2017-11-17T05:36:26.936Z,101603.67
2017-11-17T05:37:29.404Z,101599.28
2017-11-17T05:38:31.863Z,101605.35
2017-11-17T05:39:34.324Z,101606.53
2017-11-17T05:40:36.790Z,101602.95
2017-11-17T05:41:39.268Z,101604.97
2017-11-17T05:42:41.754Z,101610.27
2017-11-17T05:43:44.229Z,101602.36
2017-11-17T05:44:46.709Z,101607.09
2017-11-17T05:45:49.194Z,101605.31
2017-11-17T05:46:51.690Z,101605.56
2017-11-17T05:47:54.162Z,101606.94
2017-11-17T05:48:56.630Z,101603.93
2017-11-17T05:49:59.094Z,101610.57
2017-11-17T05:51:01.567Z,101610.57
2017-11-17T05:52:04.047Z,101615.42
2017-11-17T05:53:06.510Z,101618.73
2017-11-17T05:54:08.991Z,101615.33
2017-11-17T05:55:11.459Z,101611.80
2017-11-17T05:56:13.942Z,101611.95
2017-11-17T05:57:16.414Z,101618.31
2017-11-17T05:58:18.880Z,101618.05
2017-11-17T05:59:21.372Z,101616.89
2017-11-17T06:00:23.948Z,101626.17
2017-11-17T06:01:26.436Z,101625.82
2017-11-17T06:02:28.952Z,101629.57
2017-11-17T06:03:31.433Z,101632.22
2017-11-17T06:04:33.978Z,101638.16
2017-11-17T06:05:36.447Z,101635.20
2017-11-17T06:06:38.952Z,101632.09
2017-11-17T06:07:42.265Z,101635.46
2017-11-17T06:08:44.789Z,101634.95
2017-11-17T06:09:47.368Z,101638.13
2017-11-17T06:10:49.855Z,101634.61
2017-11-17T06:11:52.348Z,101635.88
2017-11-17T06:12:54.863Z,101641.29
2017-11-17T06:13:57.323Z,101640.07
2017-11-17T06:14:59.793Z,101641.03
2017-11-17T06:16:02.256Z,101638.95
2017-11-17T06:17:04.734Z,101642.36
2017-11-17T06:18:07.196Z,101646.14
2017-11-17T06:19:09.828Z,101637.75
2017-11-17T06:20:12.303Z,101647.30
2017-11-17T06:21:14.777Z,101647.20
2017-11-17T06:22:17.261Z,101649.55
2017-11-17T06:23:19.761Z,101647.69
2017-11-17T06:24:22.233Z,101647.23
2017-11-17T06:25:24.705Z,101653.25
2017-11-17T06:26:27.269Z,101648.09
2017-11-17T06:27:29.746Z,101652.07
2017-11-17T06:28:32.212Z,101655.64
2017-11-17T06:29:34.691Z,101658.81
2017-11-17T06:30:37.167Z,101651.52
2017-11-17T06:31:39.641Z,101651.41
2017-11-17T06:32:42.129Z,101656.26
2017-11-17T06:33:44.588Z,101651.31
2017-11-17T06:34:47.077Z,101660.86
2017-11-17T06:35:49.556Z,101664.48
2017-11-17T06:36:52.036Z,101663.38
2017-11-17T06:37:54.510Z,101660.67
2017-11-17T06:38:56.980Z,101665.12
2017-11-17T06:40:00.199Z,101659.81
2017-11-17T06:41:02.674Z,101660.27
2017-11-17T06:42:05.184Z,101662.64
2017-11-17T06:43:07.655Z,101663.63
2017-11-17T06:44:10.119Z,101665.31
2017-11-17T06:45:12.602Z,101655.31
2017-11-17T06:46:15.075Z,101668.83
2017-11-17T06:47:17.557Z,101665.30
2017-11-17T06:48:20.034Z,101660.92
2017-11-17T06:49:22.512Z,101666.48
2017-11-17T06:50:24.996Z,101670.91
2017-11-17T06:51:27.478Z,101665.27
2017-11-17T06:52:29.962Z,101673.17
2017-11-17T06:53:32.458Z,101672.26
2017-11-17T06:54:34.938Z,101671.74
2017-11-17T06:55:37.469Z,101672.86
2017-11-17T06:56:39.946Z,101675.62
2017-11-17T06:57:42.416Z,101675.31
2017-11-17T06:58:44.913Z,101683.12
2017-11-17T06:59:47.390Z,101683.01
2017-11-17T07:00:49.876Z,101677.09
2017-11-17T07:01:52.340Z,101678.61
2017-11-17T07:02:54.831Z,101675.38
2017-11-17T07:03:57.291Z,101681.84
2017-11-17T07:04:59.771Z,101684.28
2017-11-17T07:06:02.265Z,101682.70
2017-11-17T07:07:04.737Z,101684.17
2017-11-17T07:08:07.216Z,101686.78
2017-11-17T07:09:09.681Z,101686.32
2017-11-17T07:10:12.136Z,101693.36
2017-11-17T07:11:14.619Z,101695.16
2017-11-17T07:12:17.110Z,101697.34
2017-11-17T07:13:19.639Z,101699.80
2017-11-17T07:14:22.108Z,101704.49
2017-11-17T07:15:24.586Z,101701.37
2017-11-17T07:16:27.081Z,101715.88
2017-11-17T07:17:29.562Z,101710.01
2017-11-17T07:18:32.214Z,101714.60
2017-11-17T07:19:34.705Z,101726.34
2017-11-17T07:20:37.185Z,101716.44
2017-11-17T07:21:39.686Z,101723.34
2017-11-17T07:22:42.163Z,101728.50
2017-11-17T07:23:44.642Z,101727.17
2017-11-17T07:24:47.130Z,101727.48
2017-11-17T07:25:49.596Z,101731.94
2017-11-17T07:26:52.082Z,101732.09
2017-11-17T07:27:54.558Z,101734.86
2017-11-17T07:28:57.044Z,101738.07
2017-11-17T07:30:00.130Z,101741.28
2017-11-17T07:31:02.603Z,101743.52
2017-11-17T07:32:05.090Z,101745.20
2017-11-17T07:33:07.582Z,101735.61
2017-11-17T07:34:10.044Z,101740.20
2017-11-17T07:35:12.502Z,101741.59
2017-11-17T07:36:14.996Z,101740.11
2017-11-17T07:37:17.500Z,101741.38
2017-11-17T07:38:19.969Z,101737.80
2017-11-17T07:39:22.461Z,101737.95
2017-11-17T07:40:24.946Z,101738.63
2017-11-17T07:41:27.519Z,101737.16
2017-11-17T07:42:30.021Z,101738.87
2017-11-17T07:43:32.497Z,101732.97
2017-11-17T07:44:35.006Z,101740.19
2017-11-17T07:45:37.503Z,101741.47
2017-11-17T07:46:39.976Z,101742.22
2017-11-17T07:47:42.474Z,101750.84
2017-11-17T07:48:44.961Z,101744.67
2017-11-17T07:49:47.468Z,101748.75
2017-11-17T07:50:49.951Z,101752.02
2017-11-17T07:51:52.466Z,101751.20
2017-11-17T07:52:54.966Z,101754.63
2017-11-17T07:53:57.445Z,101760.14
2017-11-17T07:54:59.923Z,101756.00
2017-11-17T07:56:02.392Z,101756.16
2017-11-17T07:57:04.852Z,101756.46
2017-11-17T07:58:07.338Z,101756.20
2017-11-17T07:59:09.795Z,101757.73
2017-11-17T08:00:12.272Z,101755.19
2017-11-17T08:01:14.824Z,101759.22
2017-11-17T08:02:17.297Z,101760.34
2017-11-17T08:03:19.772Z,101760.95
2017-11-17T08:04:22.243Z,101758.47
2017-11-17T08:05:24.700Z,101760.30
2017-11-17T08:06:27.195Z,101764.33
2017-11-17T08:07:29.657Z,101761.22
2017-11-17T08:08:32.152Z,101761.82
2017-11-17T08:09:34.635Z,101768.58
2017-11-17T08:10:37.122Z,101763.64
2017-11-17T08:11:39.583Z,101765.73
2017-11-17T08:12:42.054Z,101769.34
2017-11-17T08:13:44.551Z,101766.64
2017-11-17T08:14:47.186Z,101765.16
2017-11-17T08:15:49.666Z,101767.80
2017-11-17T08:16:52.154Z,101762.75
2017-11-17T08:18:01.251Z,101765.40
2017-11-17T08:19:03.730Z,101764.45
2017-11-17T08:20:06.196Z,101767.91
2017-11-17T08:21:08.670Z,101768.47
2017-11-17T08:22:11.148Z,101767.66
2017-11-17T08:23:13.625Z,101765.83
2017-11-17T08:24:16.088Z,101766.06
2017-11-17T08:25:18.556Z,101765.00
2017-11-17T08:26:21.021Z,101767.66
2017-11-17T08:27:23.493Z,101770.34
2017-11-17T08:28:25.965Z,101764.28
2017-11-17T08:29:28.443Z,101767.53
2017-11-17T08:30:30.900Z,101762.48
2017-11-17T08:31:33.360Z,101771.52
2017-11-17T08:32:35.845Z,101767.32
2017-11-17T08:33:38.334Z,101770.44
2017-11-17T08:34:40.807Z,101770.95
2017-11-17T08:35:43.267Z,101774.92
2017-11-17T08:36:45.744Z,101774.62
2017-11-17T08:37:48.213Z,101774.06
2017-11-17T08:38:50.693Z,101776.81
2017-11-17T08:39:53.180Z,101775.19
2017-11-17T08:40:55.669Z,101773.95
2017-11-17T08:41:58.147Z,101772.98
2017-11-17T08:43:00.612Z,101771.51
2017-11-17T08:44:03.077Z,101776.09
2017-11-17T08:45:05.537Z,101779.83
2017-11-17T08:46:08.344Z,101774.33
2017-11-17T08:47:10.837Z,101775.35
2017-11-17T08:48:13.310Z,101778.67
2017-11-17T08:49:15.785Z,101778.31
2017-11-17T08:50:18.745Z,101779.17
2017-11-17T08:51:21.208Z,101778.25
2017-11-17T08:52:23.693Z,101779.27
2017-11-17T08:53:26.169Z,101775.16
2017-11-17T08:54:28.648Z,101779.74
2017-11-17T08:55:31.108Z,101778.27
2017-11-17T08:56:33.613Z,101774.84
2017-11-17T08:57:36.090Z,101777.49
2017-11-17T08:58:38.547Z,101781.52
2017-11-17T08:59:41.026Z,101773.42
2017-11-17T09:00:43.493Z,101776.89
2017-11-17T09:01:45.959Z,101773.59
2017-11-17T09:02:48.476Z,101775.42
2017-11-17T09:03:50.940Z,101772.97
2017-11-17T09:04:53.419Z,101775.31
2017-11-17T09:05:55.885Z,101774.61
2017-11-17T09:06:58.356Z,101775.98
2017-11-17T09:08:00.842Z,101778.94
2017-11-17T09:09:03.308Z,101772.64
2017-11-17T09:10:05.790Z,101778.47
2017-11-17T09:11:08.269Z,101779.83
2017-11-17T09:12:10.737Z,101781.67
2017-11-17T09:13:13.195Z,101778.16
2017-11-17T09:14:15.692Z,101778.52
2017-11-17T09:15:18.168Z,101775.18
2017-11-17T09:16:20.643Z,101774.72
2017-11-17T09:17:23.126Z,101774.06
2017-11-17T09:18:25.606Z,101771.05
2017-11-17T09:19:28.119Z,101775.34
2017-11-17T09:20:30.575Z,101773.80
2017-11-17T09:21:33.058Z,101778.25
2017-11-17T09:22:35.538Z,101770.69
2017-11-17T09:23:38.013Z,101773.75
2017-11-17T09:24:40.476Z,101768.95
2017-11-17T09:25:42.966Z,101774.62
2017-11-17T09:26:45.465Z,101774.67
2017-11-17T09:27:47.928Z,101768.64
2017-11-17T09:28:50.391Z,101778.04
2017-11-17T09:29:52.865Z,101772.95
2017-11-17T09:30:55.378Z,101776.42
2017-11-17T09:31:57.884Z,101777.59
2017-11-17T09:33:00.351Z,101775.45
2017-11-17T09:34:02.831Z,101778.81
2017-11-17T09:35:05.301Z,101784.53
2017-11-17T09:36:08.014Z,101785.11
2017-11-17T09:37:10.516Z,101786.69
2017-11-17T09:38:12.980Z,101783.31
2017-11-17T09:39:15.517Z,101789.14
2017-11-17T09:40:17.984Z,101790.13
2017-11-17T09:41:20.443Z,101785.06
2017-11-17T09:42:22.904Z,101788.42
2017-11-17T09:43:25.368Z,101793.42
2017-11-17T09:44:27.928Z,101790.30
2017-11-17T09:45:30.416Z,101787.71
2017-11-17T09:46:32.902Z,101785.56
2017-11-17T09:47:35.379Z,101794.02
2017-11-17T09:48:37.859Z,101792.98
2017-11-17T09:49:40.346Z,101795.64
2017-11-17T09:50:42.820Z,101792.52
2017-11-17T09:51:45.292Z,101795.87
2017-11-17T09:52:47.775Z,101791.23
2017-11-17T09:53:50.254Z,101792.64
2017-11-17T09:54:52.739Z,101789.94
2017-11-17T09:55:55.203Z,101788.16
2017-11-17T09:56:57.669Z,101797.69
2017-11-17T09:58:00.141Z,101783.96
2017-11-17T09:59:02.608Z,101790.73
2017-11-17T10:00:05.095Z,101790.22
2017-11-17T10:01:07.559Z,101795.05
2017-11-17T10:02:10.024Z,101789.70
2017-11-17T10:03:12.503Z,101784.48
2017-11-17T10:04:14.991Z,101788.36
2017-11-17T10:05:17.472Z,101788.51
2017-11-17T10:06:19.950Z,101788.07
2017-11-17T10:07:22.447Z,101789.03
2017-11-17T10:08:24.927Z,101787.40
2017-11-17T10:09:27.400Z,101789.23
2017-11-17T10:10:29.877Z,101788.56
2017-11-17T10:11:32.364Z,101790.79
2017-11-17T10:12:34.868Z,101793.58
2017-11-17T10:13:37.350Z,101789.64
2017-11-17T10:14:39.839Z,101785.93
2017-11-17T10:15:42.309Z,101787.59
2017-11-17T10:16:44.778Z,101787.03
2017-11-17T10:17:47.240Z,101792.80
2017-11-17T10:18:49.727Z,101792.50
2017-11-17T10:19:52.200Z,101788.75
2017-11-17T10:20:54.676Z,101797.93
2017-11-17T10:21:57.154Z,101791.16
2017-11-17T10:22:59.617Z,101791.27
2017-11-17T10:24:02.077Z,101794.13
2017-11-17T10:25:04.540Z,101797.44
2017-11-17T10:26:07.038Z,101797.55
2017-11-17T10:27:09.521Z,101798.63
2017-11-17T10:28:12.014Z,101799.44
2017-11-17T10:29:14.530Z,101789.66
2017-11-17T10:30:17.010Z,101802.16
2017-11-17T10:31:19.485Z,101801.56
2017-11-17T10:32:21.966Z,101797.64
2017-11-17T10:33:24.449Z,101790.49
2017-11-17T10:34:27.981Z,101786.88
2017-11-17T10:35:30.463Z,101787.40
2017-11-17T10:36:32.946Z,101783.63
2017-11-17T10:37:35.432Z,101784.00
2017-11-17T10:38:37.900Z,101785.48
2017-11-17T10:39:40.382Z,101785.19
2017-11-17T10:40:42.866Z,101784.36
2017-11-17T10:41:45.347Z,101789.41
2017-11-17T10:42:47.835Z,101787.48
2017-11-17T10:43:50.305Z,101783.60
2017-11-17T10:44:52.810Z,101785.80
2017-11-17T10:45:55.296Z,101781.06
2017-11-17T10:46:57.760Z,101784.94
2017-11-17T10:48:00.220Z,101782.22
2017-11-17T10:49:02.707Z,101775.90
2017-11-17T10:50:05.219Z,101775.90
2017-11-17T10:51:07.694Z,101780.84
2017-11-17T10:52:10.160Z,101776.16
2017-11-17T10:53:12.618Z,101775.19
2017-11-17T10:54:15.099Z,101776.56
2017-11-17T10:55:17.572Z,101769.42
2017-11-17T10:56:34.686Z,101770.09
2017-11-17T10:57:37.165Z,101774.62
2017-11-17T10:58:41.312Z,101773.25
2017-11-17T10:59:45.635Z,101775.19
2017-11-17T11:00:48.131Z,101776.01
2017-11-17T11:01:50.614Z,101775.03
2017-11-17T11:02:53.080Z,101769.94
2017-11-17T11:03:55.562Z,101765.39
2017-11-17T11:04:58.029Z,101773.51
2017-11-17T11:06:00.514Z,101775.30
2017-11-17T11:07:04.859Z,101775.30
2017-11-17T11:08:07.364Z,101779.02
2017-11-17T11:09:09.903Z,101773.51
2017-11-17T11:10:12.402Z,101766.63
2017-11-17T11:11:20.282Z,101772.13
2017-11-17T11:12:22.763Z,101763.87
2017-11-17T11:13:25.223Z,101770.75
2017-11-17T11:14:27.707Z,101771.16
2017-11-17T11:15:30.187Z,101771.72
2017-11-17T11:16:32.652Z,101774.06
2017-11-17T11:17:35.121Z,101773.10
2017-11-17T11:18:37.586Z,101767.74
2017-11-17T11:19:40.098Z,101764.88
2017-11-17T11:20:42.561Z,101762.84
2017-11-17T11:21:45.029Z,101762.88
2017-11-17T11:22:47.501Z,101761.67
2017-11-17T11:23:49.982Z,101763.91
2017-11-17T11:24:52.462Z,101764.36
2017-11-17T11:25:54.941Z,101765.06
2017-11-17T11:26:57.400Z,101767.56
2017-11-17T11:27:59.882Z,101765.52
2017-11-17T11:29:02.363Z,101761.69
2017-11-17T11:30:04.852Z,101758.42
2017-11-17T11:31:07.353Z,101757.31
2017-11-17T11:32:09.831Z,101756.64
2017-11-17T11:33:12.310Z,101757.50
2017-11-17T11:34:14.878Z,101761.53
2017-11-17T11:35:17.355Z,101756.88
2017-11-17T11:36:19.816Z,101753.45
2017-11-17T11:37:22.276Z,101751.56
2017-11-17T11:38:24.732Z,101750.89
2017-11-17T11:39:27.197Z,101749.37
2017-11-17T11:40:29.669Z,101745.50
2017-11-17T11:41:32.139Z,101749.06
2017-11-17T11:42:34.618Z,101746.42
2017-11-17T11:43:37.076Z,101747.24
2017-11-17T11:44:39.532Z,101754.80
2017-11-17T11:45:42.012Z,101752.96
2017-11-17T11:46:44.480Z,101752.14
2017-11-17T11:47:46.944Z,101748.98
2017-11-17T11:48:49.423Z,101749.28
2017-11-17T11:49:51.909Z,101761.42
2017-11-17T11:50:54.395Z,101749.89
2017-11-17T11:51:56.856Z,101750.34
2017-11-17T11:52:59.335Z,101750.38